Golden Triangle Regional Air, Mississippi
Current Conditions -  °F | °C
As of 4:50 PM on Friday 28 Nov 2014 (Local Time) from KGTR Reporting Station
Clear Clear  
Wind Chill: 45°   Ceiling: Unl
Heat Index: 48°   Visibility: 10mi
Dew Point: 27°   Wind: 8mph
Humidity: 43%   Direction: 160°SSE
Pressure: 30.25"   Gusts: NA
Location:  33.455°N, 88.5512°W
Report Text: KGTR 282250Z 16007KT 10SM SKC 09/M03 A3025
Loading
Personal Weather Stations






























Interactive Weather Map New forecast layout! Learn more

10-Day Weather Forecast

Advertisements
Track Severe Weather on mobile